Time;durP1;ratioP1;P1;durP2;ratioP2;P2;SDS_P1;SDS_P2;PMS_P1;PMS_P2;Temp;Humidity;BMP_temperature;BMP_pressure;BME280_temperature;BME280_humidity;BME280_pressure;Samples;Min_cycle;Max_cycle;Signal;HPM_P1;HPM_P2
2022/05/09 00:00:16;;;;;;;1.10;1.10;;;22.30;63.50;;;;;;5033600;28;20484;-55
2022/05/09 00:02:43;;;;;;;1.30;1.20;;;22.30;63.50;;;;;;5033728;28;20445;-54
2022/05/09 00:05:15;;;;;;;1.00;1.00;;;22.30;63.50;;;;;;5033389;28;20467;-61
2022/05/09 00:07:44;;;;;;;0.80;0.80;;;22.30;63.60;;;;;;5033164;28;20483;-58
2022/05/09 00:10:13;;;;;;;0.97;0.97;;;22.30;63.60;;;;;;5046558;28;20790;-63
2022/05/09 00:12:40;;;;;;;1.00;1.00;;;22.30;63.60;;;;;;5048320;28;20521;-63
2022/05/09 00:15:09;;;;;;;0.90;0.90;;;22.30;63.60;;;;;;5048329;28;20473;-64
2022/05/09 00:17:35;;;;;;;0.90;0.90;;;22.30;63.60;;;;;;5047550;28;20448;-63
2022/05/09 00:20:02;;;;;;;1.03;1.03;;;22.30;63.60;;;;;;5047091;28;20481;-62
2022/05/09 00:22:29;;;;;;;1.10;0.93;;;22.30;63.60;;;;;;5047065;28;20539;-62
2022/05/09 00:25:00;;;;;;;1.07;1.03;;;22.30;63.60;;;;;;5048077;28;20445;-64
2022/05/09 00:27:27;;;;;;;1.73;0.90;;;22.20;63.50;;;;;;5048306;28;20449;-63
2022/05/09 00:29:54;;;;;;;0.80;0.80;;;22.20;63.50;;;;;;5047031;28;20453;-64
2022/05/09 00:32:21;;;;;;;1.27;1.10;;;22.20;63.60;;;;;;5047640;28;20453;-62
2022/05/09 00:34:48;;;;;;;1.60;1.50;;;22.20;63.60;;;;;;5048608;28;20489;-64
2022/05/09 00:37:14;;;;;;;2.27;1.20;;;22.20;63.60;;;;;;5048077;28;20521;-63
2022/05/09 00:39:41;;;;;;;1.10;1.00;;;22.20;63.60;;;;;;5048180;28;20472;-63
2022/05/09 00:42:11;;;;;;;1.60;1.60;;;22.20;63.60;;;;;;5048939;28;20455;-64
2022/05/09 00:44:39;;;;;;;1.30;1.20;;;22.20;63.60;;;;;;5048615;28;20532;-62
2022/05/09 00:47:06;;;;;;;0.90;0.90;;;22.20;63.60;;;;;;5048589;28;20449;-64
2022/05/09 00:49:38;;;;;;;0.77;0.77;;;22.20;63.60;;;;;;5049409;28;20536;-64
2022/05/09 00:52:09;;;;;;;1.43;1.20;;;22.10;63.60;;;;;;5047862;28;20471;-64
2022/05/09 00:54:41;;;;;;;1.10;1.10;;;22.10;63.70;;;;;;5029209;28;20452;-63
2022/05/09 00:57:15;;;;;;;1.60;1.50;;;22.10;63.70;;;;;;5029651;28;20442;-63
2022/05/09 00:59:43;;;;;;;0.90;0.90;;;22.10;63.80;;;;;;5028183;28;20470;-63
2022/05/09 01:02:12;;;;;;;1.20;1.10;;;22.10;63.80;;;;;;5029029;28;20529;-63
2022/05/09 01:04:46;;;;;;;1.27;1.00;;;22.10;63.80;;;;;;5047418;28;20459;-63
2022/05/09 01:07:13;;;;;;;1.03;1.03;;;22.10;63.90;;;;;;5045346;28;20453;-64
2022/05/09 01:09:39;;;;;;;1.63;1.53;;;22.10;63.80;;;;;;5045015;28;21084;-62
2022/05/09 01:12:11;;;;;;;1.13;1.13;;;22.10;63.90;;;;;;5047199;28;20441;-64
2022/05/09 01:14:39;;;;;;;1.00;0.87;;;22.10;63.90;;;;;;5047363;28;20524;-62
2022/05/09 01:17:06;;;;;;;1.10;1.10;;;22.10;63.90;;;;;;5046081;28;20436;-62
2022/05/09 01:19:36;;;;;;;1.30;1.20;;;22.10;63.80;;;;;;5045149;28;20789;-64
2022/05/09 01:22:16;;;;;;;1.20;1.20;;;22.00;63.70;;;;;;5046033;28;20497;-64
2022/05/09 01:24:43;;;;;;;1.07;1.07;;;22.00;63.80;;;;;;5045847;28;20441;-64
2022/05/09 01:27:10;;;;;;;1.17;1.17;;;22.00;63.70;;;;;;5045544;28;20817;-63
2022/05/09 01:29:43;;;;;;;1.70;1.10;;;22.00;63.70;;;;;;5046249;28;20985;-63
2022/05/09 01:32:13;;;;;;;1.07;0.77;;;22.00;63.90;;;;;;5046822;28;20440;-62
2022/05/09 01:34:44;;;;;;;1.27;1.27;;;22.00;63.80;;;;;;5046366;28;20484;-62
2022/05/09 01:37:13;;;;;;;1.57;1.47;;;22.00;63.80;;;;;;5046789;28;20452;-63
2022/05/09 01:39:40;;;;;;;1.30;1.23;;;22.00;63.80;;;;;;5048131;28;20475;-64
2022/05/09 01:42:09;;;;;;;1.27;1.27;;;22.00;63.70;;;;;;5046480;28;20489;-62
2022/05/09 01:44:37;;;;;;;1.23;1.23;;;22.00;63.70;;;;;;5045879;28;20445;-63
2022/05/09 01:49:46;;;;;;;1.10;1.10;;;22.00;63.70;;;;;;5013150;28;20448;-64
2022/05/09 01:52:15;;;;;;;1.47;1.47;;;22.00;63.70;;;;;;5046528;28;20442;-62
2022/05/09 01:54:43;;;;;;;1.10;1.00;;;22.00;63.70;;;;;;5048099;28;20809;-63
2022/05/09 01:57:10;;;;;;;1.30;1.20;;;22.00;63.70;;;;;;5047960;28;20437;-63
2022/05/09 01:59:37;;;;;;;1.23;1.23;;;21.90;63.60;;;;;;5047711;28;20552;-63
2022/05/09 02:02:09;;;;;;;1.00;1.00;;;22.00;64.40;;;;;;5045814;28;20476;-64
2022/05/09 02:04:38;;;;;;;0.97;0.97;;;21.90;63.50;;;;;;5045504;28;20475;-64
2022/05/09 02:07:09;;;;;;;1.20;1.13;;;21.90;63.50;;;;;;5044288;28;20532;-64
2022/05/09 02:09:38;;;;;;;1.20;1.20;;;21.90;63.50;;;;;;5045923;28;21002;-62
2022/05/09 02:12:06;;;;;;;1.20;1.10;;;21.90;63.50;;;;;;5049349;28;20448;-63
2022/05/09 02:14:33;;;;;;;1.13;1.07;;;21.90;63.40;;;;;;5051178;28;20814;-62
2022/05/09 02:17:01;;;;;;;1.43;1.33;;;21.90;63.40;;;;;;5050251;28;20520;-64
2022/05/09 02:19:28;;;;;;;1.27;1.20;;;21.90;63.30;;;;;;5048892;28;20563;-62
2022/05/09 02:21:55;;;;;;;0.80;0.80;;;21.90;63.40;;;;;;5048727;28;20480;-63
2022/05/09 02:24:22;;;;;;;0.80;0.80;;;21.90;63.40;;;;;;5050155;28;20445;-62
2022/05/09 02:26:50;;;;;;;0.93;0.93;;;21.90;63.40;;;;;;5050613;28;20449;-63
2022/05/09 02:29:17;;;;;;;1.17;1.17;;;21.90;63.30;;;;;;5051326;28;20461;-64
2022/05/09 02:31:45;;;;;;;1.30;1.20;;;21.90;63.40;;;;;;5051130;28;20441;-63
2022/05/09 02:34:12;;;;;;;1.90;1.00;;;21.90;63.40;;;;;;5049749;28;20504;-63
2022/05/09 02:36:39;;;;;;;0.97;0.97;;;21.90;63.30;;;;;;5050284;28;20449;-62
2022/05/09 02:39:06;;;;;;;1.30;1.20;;;21.80;63.20;;;;;;5049009;28;20838;-63
2022/05/09 02:41:33;;;;;;;1.13;1.10;;;21.80;63.20;;;;;;5049517;28;20487;-64
2022/05/09 02:44:01;;;;;;;0.93;0.90;;;21.80;63.30;;;;;;5047935;28;20456;-64
2022/05/09 02:46:28;;;;;;;1.53;1.43;;;21.80;63.20;;;;;;5048000;28;20871;-64
2022/05/09 02:48:59;;;;;;;1.27;1.27;;;21.80;63.20;;;;;;5046725;28;20461;-64
2022/05/09 02:51:27;;;;;;;1.60;1.50;;;21.80;63.10;;;;;;5046663;28;20965;-62
2022/05/09 02:53:56;;;;;;;1.80;1.30;;;21.80;63.10;;;;;;5050616;28;20801;-64
2022/05/09 02:56:23;;;;;;;1.07;1.03;;;21.80;63.00;;;;;;5050217;28;20934;-63
2022/05/09 02:58:50;;;;;;;1.23;1.13;;;21.80;63.10;;;;;;5049151;28;20472;-63
2022/05/09 03:01:18;;;;;;;1.60;1.50;;;21.80;63.10;;;;;;5048645;28;20479;-64
2022/05/09 03:06:29;;;;;;;1.10;1.10;;;21.80;62.90;;;;;;5047622;28;20587;-64
2022/05/09 03:08:56;;;;;;;0.80;0.80;;;21.80;62.90;;;;;;5048944;28;20472;-63
2022/05/09 03:11:22;;;;;;;1.43;1.17;;;21.80;63.10;;;;;;5049196;28;20443;-62
2022/05/09 03:13:49;;;;;;;1.57;1.47;;;21.80;63.10;;;;;;5049440;28;20508;-63
2022/05/09 03:16:17;;;;;;;0.90;0.90;;;21.80;63.00;;;;;;5048703;28;20445;-64
2022/05/09 03:18:44;;;;;;;1.10;1.10;;;21.80;63.00;;;;;;5046980;28;20564;-64
2022/05/09 03:21:11;;;;;;;1.00;1.00;;;21.80;63.00;;;;;;5046506;28;20487;-62
2022/05/09 03:23:38;;;;;;;1.80;1.30;;;21.80;63.00;;;;;;5046875;28;20445;-63
2022/05/09 03:26:05;;;;;;;1.10;1.10;;;21.80;63.00;;;;;;5048517;28;20935;-64
2022/05/09 03:28:32;;;;;;;1.20;1.20;;;21.70;62.80;;;;;;5048114;28;20465;-64
2022/05/09 03:31:00;;;;;;;1.30;1.20;;;21.70;62.70;;;;;;5047775;28;20456;-64
2022/05/09 03:33:28;;;;;;;1.30;1.30;;;21.80;62.80;;;;;;5047855;28;21018;-62
2022/05/09 03:35:56;;;;;;;4.20;1.40;;;21.70;62.70;;;;;;5048471;28;20512;-64
2022/05/09 03:38:23;;;;;;;1.23;1.23;;;21.70;62.70;;;;;;5047775;28;20905;-64
2022/05/09 03:40:49;;;;;;;1.70;1.60;;;21.70;62.80;;;;;;5048206;28;20474;-63
2022/05/09 03:43:16;;;;;;;0.87;0.87;;;21.70;62.60;;;;;;5047926;28;20451;-64
2022/05/09 03:45:46;;;;;;;1.60;1.50;;;21.70;62.70;;;;;;5047868;28;20453;-63
2022/05/09 03:48:13;;;;;;;1.60;1.50;;;21.70;62.50;;;;;;5047910;28;20967;-64
2022/05/09 03:50:41;;;;;;;1.50;1.40;;;21.70;62.60;;;;;;5033373;28;20460;-65
2022/05/09 03:53:08;;;;;;;1.40;1.40;;;21.80;62.80;;;;;;5033894;28;20441;-65
2022/05/09 03:55:35;;;;;;;1.00;1.00;;;21.80;62.80;;;;;;5033800;28;20464;-65
2022/05/09 03:58:03;;;;;;;1.63;1.40;;;21.70;62.90;;;;;;5033462;28;20480;-65
2022/05/09 04:00:33;;;;;;;1.63;1.20;;;21.70;63.20;;;;;;5033375;28;20449;-65
2022/05/09 04:03:00;;;;;;;1.53;1.43;;;21.70;63.50;;;;;;5033557;28;20484;-65
2022/05/09 04:05:30;;;;;;;1.17;1.17;;;21.70;63.80;;;;;;5033635;28;20444;-65
2022/05/09 04:08:00;;;;;;;1.03;1.03;;;21.70;63.90;;;;;;5033327;28;20503;-64
2022/05/09 04:10:29;;;;;;;1.23;1.23;;;21.60;63.90;;;;;;5033224;28;20457;-65
2022/05/09 04:12:56;;;;;;;1.03;0.90;;;21.60;64.00;;;;;;5033483;28;20527;-65
2022/05/09 04:18:08;;;;;;;1.27;1.27;;;21.70;64.50;;;;;;5032874;28;20452;-65
2022/05/09 04:20:36;;;;;;;1.80;1.70;;;21.70;63.90;;;;;;5033163;28;20472;-64
2022/05/09 04:23:04;;;;;;;1.20;1.20;;;21.70;61.70;;;;;;5033241;28;20492;-63
2022/05/09 04:25:32;;;;;;;2.47;1.83;;;21.60;60.10;;;;;;5033219;28;20437;-63
2022/05/09 04:27:59;;;;;;;1.97;1.87;;;21.60;58.80;;;;;;5032984;28;20523;-62
2022/05/09 04:30:26;;;;;;;2.13;2.00;;;21.70;57.70;;;;;;5032873;28;20442;-55
2022/05/09 04:32:53;;;;;;;2.90;2.23;;;21.60;56.80;;;;;;5032981;28;20804;-57
2022/05/09 04:35:20;;;;;;;3.03;2.00;;;21.60;55.70;;;;;;5032051;28;20475;-56
2022/05/09 04:37:48;;;;;;;4.13;2.53;;;21.50;55.20;;;;;;5032772;28;20473;-57
2022/05/09 04:40:18;;;;;;;3.30;2.00;;;21.40;55.00;;;;;;5032959;28;20877;-59
2022/05/09 04:42:45;;;;;;;2.83;2.63;;;21.40;54.50;;;;;;5032626;28;20473;-59
2022/05/09 04:45:13;;;;;;;2.77;2.57;;;21.30;54.00;;;;;;5032784;28;20820;-57
2022/05/09 04:47:40;;;;;;;4.63;2.60;;;21.30;53.60;;;;;;5032448;28;20453;-59
2022/05/09 04:50:09;;;;;;;2.73;2.53;;;21.20;53.30;;;;;;5032520;28;20442;-61
2022/05/09 04:52:36;;;;;;;3.90;2.87;;;21.20;53.20;;;;;;5032730;28;20785;-59
2022/05/09 04:55:04;;;;;;;4.43;3.60;;;21.20;53.00;;;;;;5032359;28;20452;-57
2022/05/09 04:57:33;;;;;;;2.87;2.63;;;21.20;52.90;;;;;;5032324;28;20449;-58
2022/05/09 05:00:01;;;;;;;2.73;2.53;;;21.10;52.80;;;;;;5032584;28;20944;-55
2022/05/09 05:02:28;;;;;;;4.00;2.90;;;21.10;52.60;;;;;;5032429;28;20481;-59
2022/05/09 05:04:55;;;;;;;7.33;3.00;;;21.10;52.50;;;;;;5032410;28;20451;-59
2022/05/09 05:07:21;;;;;;;3.80;3.10;;;21.10;52.40;;;;;;5031969;28;20445;-58
2022/05/09 05:09:48;;;;;;;3.30;2.53;;;21.10;52.20;;;;;;5032290;28;20477;-57
2022/05/09 05:12:15;;;;;;;4.53;3.03;;;21.10;52.20;;;;;;5032399;28;20441;-58
2022/05/09 05:14:44;;;;;;;3.80;3.00;;;21.10;52.20;;;;;;5032088;28;20454;-60
2022/05/09 05:17:11;;;;;;;4.00;2.83;;;21.10;52.20;;;;;;5012205;28;20505;-57
2022/05/09 05:19:40;;;;;;;4.20;3.20;;;21.10;52.20;;;;;;5012443;28;20477;-60
2022/05/09 05:22:08;;;;;;;4.07;2.97;;;21.00;52.10;;;;;;5012408;28;20540;-59
2022/05/09 05:24:35;;;;;;;4.30;3.27;;;21.00;52.20;;;;;;5012374;28;20434;-60
2022/05/09 05:27:02;;;;;;;3.13;2.83;;;21.00;52.30;;;;;;5030795;28;20452;-60
2022/05/09 05:29:29;;;;;;;3.43;3.10;;;21.00;52.40;;;;;;5031948;28;20459;-62
2022/05/09 05:31:57;;;;;;;3.03;2.70;;;21.00;52.50;;;;;;5031896;28;20437;-61
2022/05/09 05:34:24;;;;;;;4.27;2.77;;;21.00;52.70;;;;;;5031968;28;20440;-64
2022/05/09 05:36:51;;;;;;;5.50;3.97;;;21.00;52.80;;;;;;5031433;28;20806;-62
2022/05/09 05:39:18;;;;;;;2.97;2.23;;;21.00;52.90;;;;;;5031608;28;20892;-63
2022/05/09 05:41:45;;;;;;;2.67;2.33;;;21.00;52.80;;;;;;5031896;28;20477;-62
2022/05/09 05:44:13;;;;;;;4.73;2.77;;;21.00;53.20;;;;;;5031768;28;20444;-62
2022/05/09 05:46:40;;;;;;;7.10;2.87;;;21.00;52.60;;;;;;5031221;28;20809;-64
2022/05/09 05:49:09;;;;;;;2.60;2.40;;;21.00;52.50;;;;;;5031479;28;20469;-64
2022/05/09 05:51:36;;;;;;;2.63;2.40;;;21.00;52.50;;;;;;5031708;28;20441;-63
2022/05/09 05:54:03;;;;;;;2.90;2.70;;;21.00;52.50;;;;;;5031650;28;20503;-60
2022/05/09 05:56:33;;;;;;;2.50;2.40;;;21.00;52.50;;;;;;5031553;28;20454;-59
2022/05/09 05:59:00;;;;;;;3.17;2.40;;;21.00;52.60;;;;;;5031295;28;20473;-58
2022/05/09 06:01:27;;;;;;;3.00;2.70;;;21.00;52.80;;;;;;5031524;28;20449;-62
2022/05/09 06:03:53;;;;;;;2.50;2.13;;;21.00;53.00;;;;;;5031616;28;20449;-62
2022/05/09 06:06:21;;;;;;;2.63;2.40;;;21.00;53.10;;;;;;5031322;28;20799;-60
2022/05/09 06:08:48;;;;;;;3.37;2.20;;;21.00;53.10;;;;;;5031623;28;20978;-61
2022/05/09 06:11:15;;;;;;;2.00;1.90;;;21.00;53.20;;;;;;5031741;28;20445;-61
2022/05/09 06:13:42;;;;;;;4.87;2.53;;;21.00;53.60;;;;;;5031778;28;20437;-61
2022/05/09 06:16:10;;;;;;;3.60;3.30;;;21.00;54.00;;;;;;5031314;28;20823;-62
2022/05/09 06:18:37;;;;;;;3.57;2.53;;;21.00;54.30;;;;;;5031527;28;20475;-64
2022/05/09 06:21:04;;;;;;;3.63;2.50;;;21.00;54.50;;;;;;5031438;28;20441;-61
2022/05/09 06:23:32;;;;;;;4.77;2.43;;;21.00;54.60;;;;;;5031420;28;20516;-61
2022/05/09 06:26:00;;;;;;;3.10;2.80;;;21.00;54.70;;;;;;5031147;28;20452;-61
2022/05/09 06:28:26;;;;;;;3.50;2.80;;;21.00;54.80;;;;;;5031253;28;20507;-56
2022/05/09 06:30:53;;;;;;;2.40;2.20;;;21.10;55.10;;;;;;5031327;28;20444;-62
2022/05/09 06:33:25;;;;;;;3.20;3.00;;;21.20;55.30;;;;;;5031332;28;20460;-63
2022/05/09 06:35:53;;;;;;;3.33;3.07;;;21.20;55.60;;;;;;5031107;28;20441;-63
2022/05/09 06:38:22;;;;;;;3.07;2.13;;;21.20;55.70;;;;;;5030906;28;20479;-58
2022/05/09 06:40:51;;;;;;;4.40;2.50;;;21.30;55.80;;;;;;5031316;28;20797;-57
2022/05/09 06:43:17;;;;;;;3.23;2.60;;;21.20;55.90;;;;;;5030963;28;20488;-59
2022/05/09 06:45:44;;;;;;;2.90;2.70;;;21.20;55.80;;;;;;5031270;28;20445;-58
2022/05/09 06:48:11;;;;;;;2.20;2.10;;;21.20;55.90;;;;;;5031006;28;20496;-57
2022/05/09 06:50:40;;;;;;;6.93;2.20;;;21.20;55.90;;;;;;5027961;28;20457;-63
2022/05/09 06:53:07;;;;;;;2.33;2.10;;;21.30;56.10;;;;;;5031285;28;20814;-61
2022/05/09 06:55:35;;;;;;;2.57;2.37;;;21.30;56.10;;;;;;5031236;28;21100;-62
2022/05/09 06:58:07;;;;;;;2.20;2.03;;;21.30;56.00;;;;;;5031129;28;20889;-61
2022/05/09 07:00:33;;;;;;;2.30;1.80;;;21.30;55.90;;;;;;5034808;28;20437;-62
2022/05/09 07:03:00;;;;;;;2.73;2.53;;;21.30;55.80;;;;;;5034408;28;20824;-60
2022/05/09 07:05:27;;;;;;;2.13;1.93;;;21.20;55.80;;;;;;5034801;28;20444;-61
2022/05/09 07:07:54;;;;;;;2.93;2.53;;;21.20;55.90;;;;;;5034353;28;20473;-59
2022/05/09 07:10:22;;;;;;;4.27;2.20;;;21.20;55.90;;;;;;5034572;28;20775;-60
2022/05/09 07:12:50;;;;;;;1.97;1.87;;;21.20;56.10;;;;;;5034674;28;20868;-61
2022/05/09 07:15:22;;;;;;;2.27;2.17;;;21.20;56.10;;;;;;5034146;28;20976;-63
2022/05/09 07:17:50;;;;;;;2.20;1.97;;;21.30;56.30;;;;;;5034332;28;20572;-61
2022/05/09 07:20:17;;;;;;;3.50;1.87;;;21.30;56.30;;;;;;5034491;28;20484;-61
2022/05/09 07:22:44;;;;;;;3.83;2.07;;;21.30;56.20;;;;;;5034149;28;20512;-62
2022/05/09 07:25:13;;;;;;;1.97;1.77;;;21.30;56.10;;;;;;5034062;28;20456;-60
2022/05/09 07:27:42;;;;;;;2.23;1.93;;;21.30;56.20;;;;;;5033872;28;20532;-59
2022/05/09 07:30:10;;;;;;;1.73;1.63;;;21.30;56.20;;;;;;5034337;28;20492;-58
2022/05/09 07:32:38;;;;;;;2.10;1.67;;;21.30;56.40;;;;;;5034285;28;20670;-62
2022/05/09 07:35:06;;;;;;;5.67;2.50;;;21.40;56.30;;;;;;5034050;28;20456;-62
2022/05/09 07:37:33;;;;;;;4.53;3.60;;;21.30;56.30;;;;;;5033859;28;20445;-60
2022/05/09 07:40:00;;;;;;;2.30;2.10;;;21.40;56.50;;;;;;5034148;28;20536;-61
2022/05/09 07:42:27;;;;;;;3.43;2.10;;;21.40;56.50;;;;;;5034015;28;20507;-61
2022/05/09 07:44:56;;;;;;;2.57;2.37;;;21.40;57.20;;;;;;5033948;28;20464;-58
2022/05/09 07:47:23;;;;;;;2.23;2.03;;;21.40;57.80;;;;;;5033367;28;20453;-58
2022/05/09 07:49:51;;;;;;;2.53;2.33;;;21.50;57.80;;;;;;5033852;28;20469;-60
2022/05/09 07:52:18;;;;;;;2.50;2.30;;;21.60;57.90;;;;;;5033673;28;20451;-59
2022/05/09 07:54:46;;;;;;;2.30;2.17;;;21.50;57.90;;;;;;5034012;28;20449;-60
2022/05/09 07:57:13;;;;;;;2.37;2.10;;;21.50;58.20;;;;;;5033299;28;20804;-56
2022/05/09 07:59:39;;;;;;;3.60;2.33;;;21.50;58.40;;;;;;5033611;28;20556;-64
2022/05/09 08:02:06;;;;;;;1.83;1.63;;;21.50;58.40;;;;;;5033535;28;20441;-62
2022/05/09 08:04:33;;;;;;;3.07;2.47;;;21.50;58.20;;;;;;5033598;28;20468;-63
2022/05/09 08:07:02;;;;;;;1.93;1.77;;;21.50;58.10;;;;;;5033550;28;20445;-61
2022/05/09 08:09:29;;;;;;;2.53;2.33;;;21.50;58.40;;;;;;5032947;28;20522;-58
2022/05/09 08:11:57;;;;;;;3.13;1.90;;;21.60;58.70;;;;;;5033597;28;20453;-53
2022/05/09 08:14:24;;;;;;;2.20;2.00;;;21.60;59.00;;;;;;5033272;28;20519;-61
2022/05/09 08:16:51;;;;;;;2.33;2.13;;;21.50;58.20;;;;;;5032913;28;20947;-58
2022/05/09 08:19:18;;;;;;;1.90;1.80;;;21.50;58.10;;;;;;5033414;28;20996;-59
2022/05/09 08:21:47;;;;;;;2.70;2.50;;;21.50;58.20;;;;;;5033341;28;20803;-59
2022/05/09 08:24:15;;;;;;;2.30;2.10;;;21.50;58.60;;;;;;5032762;28;21016;-60
2022/05/09 08:26:42;;;;;;;2.73;2.33;;;21.40;58.10;;;;;;5022116;28;20480;-58
2022/05/09 08:29:09;;;;;;;4.43;2.93;;;21.40;58.00;;;;;;5033200;28;20830;-60
2022/05/09 08:31:36;;;;;;;2.20;2.10;;;21.40;57.70;;;;;;5033130;28;20446;-61
2022/05/09 08:34:03;;;;;;;2.20;2.00;;;21.30;57.80;;;;;;5032884;28;20441;-58
2022/05/09 08:36:48;;;;;;;4.30;2.03;;;21.30;57.90;;;;;;5032799;28;20448;-57
2022/05/09 08:39:17;;;;;;;2.73;2.50;;;21.40;58.50;;;;;;5032893;28;20517;-60
2022/05/09 08:42:03;;;;;;;5.40;2.40;;;21.40;59.30;;;;;;5033068;28;20456;-60
2022/05/09 08:44:58;;;;;;;3.60;2.00;;;21.50;60.10;;;;;;5032881;28;20994;-60
2022/05/09 08:47:53;;;;;;;2.40;2.30;;;21.50;59.90;;;;;;5032399;28;20457;-57
2022/05/09 08:50:30;;;;;;;4.70;2.73;;;21.60;60.20;;;;;;5030472;28;20485;-60
2022/05/09 08:53:02;;;;;;;2.73;2.53;;;21.60;60.50;;;;;;5032641;28;21148;-58
2022/05/09 08:55:35;;;;;;;3.17;2.97;;;21.60;60.40;;;;;;5032573;28;20536;-58
2022/05/09 08:58:14;;;;;;;9.10;2.40;;;21.60;60.30;;;;;;5032049;28;20902;-59
2022/05/09 09:00:41;;;;;;;3.50;3.20;;;21.60;60.30;;;;;;5032610;28;20491;-59
2022/05/09 09:03:25;;;;;;;2.73;2.47;;;21.60;60.10;;;;;;5032463;28;20485;-59
2022/05/09 09:05:55;;;;;;;2.70;2.50;;;21.60;59.90;;;;;;5032470;28;20449;-57
2022/05/09 09:08:31;;;;;;;3.53;2.80;;;21.70;61.00;;;;;;5032140;28;20473;-61
2022/05/09 09:11:08;;;;;;;3.97;3.57;;;21.70;61.10;;;;;;5032338;28;20487;-60
2022/05/09 09:13:49;;;;;;;3.97;3.60;;;21.70;60.90;;;;;;5032436;28;20523;-61
2022/05/09 09:16:33;;;;;;;4.47;4.10;;;21.70;60.40;;;;;;5032892;28;20915;-59
2022/05/09 09:19:14;;;;;;;4.83;3.47;;;21.70;60.30;;;;;;5032411;28;20468;-57
2022/05/09 09:21:52;;;;;;;3.00;2.80;;;21.70;60.30;;;;;;5031430;28;20456;-55
2022/05/09 09:24:42;;;;;;;5.27;2.70;;;21.70;60.40;;;;;;5012371;28;20481;-60
2022/05/09 09:27:20;;;;;;;2.80;2.63;;;21.80;60.60;;;;;;5012217;28;20473;-55
2022/05/09 09:29:52;;;;;;;4.03;2.72;;;21.80;60.60;;;;;;5023505;28;20445;-53
2022/05/09 09:32:22;;;;;;;2.67;2.47;;;21.80;60.70;;;;;;5031678;28;20195;-61
2022/05/09 09:34:56;;;;;;;3.30;3.10;;;21.80;60.60;;;;;;5031237;28;20963;-59
2022/05/09 09:37:33;;;;;;;3.90;3.00;;;21.80;60.50;;;;;;5031417;28;20449;-62
2022/05/09 09:40:00;;;;;;;3.40;2.80;;;21.80;60.80;;;;;;5031650;28;20453;-62
2022/05/09 09:42:29;;;;;;;2.97;2.77;;;21.80;61.80;;;;;;5031568;28;20946;-63
2022/05/09 09:44:58;;;;;;;4.10;3.37;;;21.80;62.90;;;;;;5031576;28;20568;-63
2022/05/09 09:47:27;;;;;;;3.43;3.13;;;21.80;64.40;;;;;;5031638;28;20460;-60
2022/05/09 09:50:14;;;;;;;4.83;3.50;;;21.90;66.00;;;;;;5031429;28;20480;-60
2022/05/09 09:52:43;;;;;;;3.83;3.63;;;21.90;67.90;;;;;;5031939;28;20645;-58
2022/05/09 09:55:23;;;;;;;3.50;3.20;;;21.80;66.20;;;;;;5020813;28;20441;-60
2022/05/09 09:57:51;;;;;;;7.73;4.00;;;21.90;65.80;;;;;;5011762;28;20466;-61
2022/05/09 10:00:21;;;;;;;3.77;3.43;;;21.90;66.90;;;;;;5011963;28;20445;-61
2022/05/09 10:02:49;;;;;;;3.17;2.97;;;21.90;66.40;;;;;;5011870;28;20449;-60
2022/05/09 10:05:19;;;;;;;4.37;3.90;;;21.90;66.40;;;;;;5011915;28;20464;-60
2022/05/09 10:07:46;;;;;;;3.20;3.00;;;21.90;66.10;;;;;;5025664;28;20457;-59
2022/05/09 10:10:15;;;;;;;4.33;2.63;;;21.90;65.90;;;;;;5031673;28;20445;-59
2022/05/09 10:12:44;;;;;;;4.60;3.00;;;21.90;66.00;;;;;;5031087;28;20449;-62
2022/05/09 10:15:29;;;;;;;4.77;3.10;;;21.90;66.10;;;;;;5031312;28;20441;-60
2022/05/09 10:17:57;;;;;;;3.70;3.43;;;21.90;66.00;;;;;;5030719;28;20472;-61
2022/05/09 10:20:34;;;;;;;4.23;3.50;;;21.90;65.80;;;;;;5031309;28;20448;-62
2022/05/09 10:26:20;;;;;;;3.47;2.60;;;22.00;65.50;;;;;;5015934;28;20457;-59
2022/05/09 10:28:48;;;;;;;3.43;3.07;;;22.00;65.40;;;;;;5031120;28;20464;-60
2022/05/09 10:31:24;;;;;;;3.07;2.80;;;22.00;65.50;;;;;;5031076;28;20468;-58
2022/05/09 10:33:58;;;;;;;3.40;3.20;;;22.00;65.50;;;;;;5034354;28;20436;-61
2022/05/09 10:36:29;;;;;;;3.67;3.37;;;22.00;65.80;;;;;;5034977;28;20440;-61
2022/05/09 10:39:02;;;;;;;2.90;2.70;;;22.00;66.00;;;;;;5034889;28;20985;-60
2022/05/09 10:41:35;;;;;;;3.57;3.27;;;22.00;66.00;;;;;;5034875;28;20448;-61
2022/05/09 10:44:08;;;;;;;3.50;3.30;;;22.10;65.40;;;;;;5034245;28;20477;-60
2022/05/09 10:46:42;;;;;;;3.53;3.23;;;22.10;65.40;;;;;;5034449;28;20449;-59
2022/05/09 10:49:20;;;;;;;2.90;2.70;;;22.10;65.50;;;;;;5034770;28;20986;-60
2022/05/09 10:51:57;;;;;;;4.70;3.90;;;22.00;65.50;;;;;;5033439;28;20445;-62
2022/05/09 10:54:29;;;;;;;3.40;3.10;;;22.00;65.80;;;;;;5015583;28;20441;-60
2022/05/09 10:57:02;;;;;;;4.17;3.87;;;22.00;65.50;;;;;;5034335;28;20452;-59
2022/05/09 10:59:32;;;;;;;3.00;2.90;;;22.10;65.40;;;;;;5034477;28;20473;-59
2022/05/09 11:02:07;;;;;;;3.30;3.20;;;22.10;65.80;;;;;;5034452;28;20456;-59
2022/05/09 11:04:36;;;;;;;4.63;4.23;;;22.20;66.10;;;;;;5034119;28;20550;-62
2022/05/09 11:07:10;;;;;;;3.90;3.07;;;22.20;65.60;;;;;;5034153;28;20441;-56
2022/05/09 11:09:48;;;;;;;3.90;3.60;;;22.30;66.10;;;;;;5034223;28;20832;-56
2022/05/09 11:12:36;;;;;;;4.00;3.70;;;22.40;65.60;;;;;;5034291;28;20808;-53
2022/05/09 11:15:13;;;;;;;3.93;3.63;;;22.40;65.20;;;;;;5030453;28;20441;-54
2022/05/09 11:18:01;;;;;;;3.50;3.30;;;22.50;65.40;;;;;;5033911;28;20452;-55
2022/05/09 11:20:32;;;;;;;3.60;3.40;;;22.50;65.40;;;;;;5018737;28;20892;-57
2022/05/09 11:23:12;;;;;;;4.27;4.07;;;22.50;65.40;;;;;;5034449;28;20472;-56
2022/05/09 11:25:52;;;;;;;3.70;3.40;;;22.40;65.40;;;;;;5034071;28;20437;-54
2022/05/09 11:29:00;;;;;;;4.40;3.27;;;22.40;65.30;;;;;;5034125;28;20591;-53
2022/05/09 11:31:34;;;;;;;3.90;3.60;;;22.40;65.40;;;;;;5034039;28;20441;-55
2022/05/09 11:34:17;;;;;;;3.50;3.10;;;22.40;65.20;;;;;;5033871;28;20441;-56
2022/05/09 11:36:59;;;;;;;4.03;3.83;;;22.40;65.40;;;;;;5020195;28;21055;-54
2022/05/09 11:39:40;;;;;;;4.13;3.93;;;22.40;65.50;;;;;;5033812;28;20619;-54
2022/05/09 11:45:11;;;;;;;4.63;4.30;;;22.30;65.60;;;;;;5032942;28;20472;-61
2022/05/09 11:47:45;;;;;;;4.77;4.47;;;22.30;65.70;;;;;;5033356;28;20448;-55
2022/05/09 11:50:33;;;;;;;4.40;4.20;;;22.40;65.60;;;;;;5033429;28;20821;-63
2022/05/09 11:53:03;;;;;;;4.50;4.17;;;22.40;65.60;;;;;;5033217;28;20990;-59
2022/05/09 11:55:30;;;;;;;4.90;4.60;;;22.40;65.60;;;;;;5033537;28;21090;-54
2022/05/09 11:57:59;;;;;;;4.00;3.80;;;22.40;65.60;;;;;;5032105;28;20469;-57
2022/05/09 12:00:48;;;;;;;4.87;4.67;;;22.30;65.40;;;;;;5033298;28;20456;-58
2022/05/09 12:03:16;;;;;;;4.70;4.40;;;22.40;65.60;;;;;;5033411;28;20456;-58
2022/05/09 12:06:02;;;;;;;4.10;3.80;;;22.50;65.80;;;;;;5033296;28;20942;-55
2022/05/09 12:08:43;;;;;;;5.00;4.50;;;22.60;66.00;;;;;;5057524;22;20484;-57
2022/05/09 12:11:29;;;;;;;4.33;4.03;;;22.60;65.00;;;;;;5053148;28;20455;-58
2022/05/09 12:13:58;;;;;;;4.47;4.17;;;22.70;65.10;;;;;;5044756;28;20455;-55
2022/05/09 12:16:53;;;;;;;4.20;3.80;;;22.80;64.80;;;;;;5053060;28;20452;-57
2022/05/09 12:19:32;;;;;;;3.80;3.60;;;22.80;64.40;;;;;;5018078;28;20479;-55
2022/05/09 12:22:34;;;;;;;3.60;3.50;;;22.70;64.30;;;;;;5037379;28;20809;-56
2022/05/09 12:25:02;;;;;;;3.67;3.47;;;22.70;64.10;;;;;;5052998;28;20475;-51
2022/05/09 12:28:04;;;;;;;3.93;3.73;;;22.70;64.00;;;;;;5052697;28;20448;-57
2022/05/09 12:30:43;;;;;;;3.27;3.07;;;22.70;63.90;;;;;;5052823;28;20562;-58
2022/05/09 12:33:26;;;;;;;4.23;3.90;;;22.60;63.60;;;;;;5052851;28;20459;-54
2022/05/09 12:35:55;;;;;;;3.97;3.77;;;22.60;62.80;;;;;;5052590;28;20822;-52
2022/05/09 12:38:26;;;;;;;4.53;4.17;;;22.60;62.60;;;;;;5052403;28;20455;-51
2022/05/09 12:41:05;;;;;;;3.30;3.20;;;22.70;62.70;;;;;;5052721;28;20447;-59
2022/05/09 12:43:35;;;;;;;3.47;3.37;;;22.90;62.20;;;;;;5051554;28;20463;-58
2022/05/09 12:46:04;;;;;;;4.10;3.90;;;23.00;62.30;;;;;;5052045;28;20881;-62
2022/05/09 12:48:31;;;;;;;3.23;3.13;;;22.90;62.00;;;;;;5052373;28;20444;-58
2022/05/09 12:51:04;;;;;;;4.47;4.07;;;22.90;62.70;;;;;;5052353;28;20440;-56
2022/05/09 12:53:34;;;;;;;3.97;3.77;;;22.90;62.00;;;;;;5052325;28;20453;-56
2022/05/09 12:56:11;;;;;;;4.00;3.40;;;22.80;62.00;;;;;;5051299;28;20614;-53
2022/05/09 12:58:39;;;;;;;3.90;3.70;;;23.00;60.80;;;;;;5052222;28;20761;-54
2022/05/09 13:01:10;;;;;;;3.27;3.07;;;23.10;59.30;;;;;;5052116;28;20452;-54
2022/05/09 13:03:49;;;;;;;3.90;3.60;;;23.10;60.30;;;;;;5052120;28;20449;-54
2022/05/09 13:06:18;;;;;;;5.57;4.50;;;23.00;63.70;;;;;;5051352;28;20448;-57
2022/05/09 13:08:47;;;;;;;8.13;6.27;;;23.00;66.90;;;;;;5051828;28;20468;-53
2022/05/09 13:11:17;;;;;;;8.00;5.80;;;23.00;68.30;;;;;;5051511;28;20455;-56
2022/05/09 13:14:02;;;;;;;8.47;6.10;;;23.10;72.50;;;;;;5046646;28;20449;-53
2022/05/09 13:16:35;;;;;;;10.80;7.00;;;23.30;74.60;;;;;;5051963;28;20448;-53
2022/05/09 13:19:02;;;;;;;10.17;5.70;;;23.30;74.10;;;;;;5052445;28;20594;-58